TPC2022 VOMY-VOBL
Flight info
| Callsign | TPC2022 |
|---|---|
| Flight time | 0h 51m |
| Altitude | 7000 |
| Route | MSR BIA |
| Aircraft | C172/L-SD/S |
Departure
| Time | 2026-05-07 06:25 |
|---|---|
| Airport | Mysore Airport (VOMY) |
Arrival
| Time | 2026-05-07 07:17 |
|---|---|
| Airport | Kempegowda International Airport Bengaluru (VOBL) |
| Time | Latitude | Longitude | Altitude | Speed | Heading |
|---|---|---|---|---|---|
| 2026-05-07 06:10 | 12.22876 | 76.65815 | 2345 ft | 0 kts | 178° |
| 2026-05-07 06:19 | 12.22876 | 76.65816 | 2345 ft | 0 kts | 121° |
| 2026-05-07 06:20 | 12.22877 | 76.65817 | 2345 ft | 0 kts | 6° |
| 2026-05-07 06:20 | 12.22904 | 76.65816 | 2346 ft | 3 kts | 354° |
| 2026-05-07 06:20 | 12.22933 | 76.65807 | 2347 ft | 6 kts | 306° |
| 2026-05-07 06:20 | 12.22936 | 76.65782 | 2348 ft | 1 kts | 268° |
| 2026-05-07 06:21 | 12.22935 | 76.65752 | 2350 ft | 5 kts | 268° |
| 2026-05-07 06:21 | 12.22957 | 76.65723 | 2352 ft | 6 kts | 351° |
| 2026-05-07 06:21 | 12.22997 | 76.65721 | 2353 ft | 5 kts | 358° |
| 2026-05-07 06:21 | 12.23056 | 76.65720 | 2353 ft | 11 kts | 356° |
| 2026-05-07 06:22 | 12.23130 | 76.65717 | 2353 ft | 8 kts | 358° |
| 2026-05-07 06:22 | 12.23172 | 76.65791 | 2351 ft | 8 kts | 88° |
| 2026-05-07 06:22 | 12.23175 | 76.65865 | 2348 ft | 11 kts | 88° |
| 2026-05-07 06:23 | 12.23181 | 76.65942 | 2346 ft | 8 kts | 81° |
| 2026-05-07 06:23 | 12.23191 | 76.65983 | 2344 ft | 3 kts | 66° |
| 2026-05-07 06:23 | 12.23201 | 76.66008 | 2343 ft | 5 kts | 82° |
| 2026-05-07 06:23 | 12.23191 | 76.66032 | 2343 ft | 0 kts | 153° |
| 2026-05-07 06:24 | 12.23179 | 76.66029 | 2343 ft | 3 kts | 234° |
| 2026-05-07 06:24 | 12.23178 | 76.66008 | 2343 ft | 2 kts | 271° |
| 2026-05-07 06:24 | 12.23172 | 76.65839 | 2349 ft | 48 kts | 266° |
| 2026-05-07 06:24 | 12.23159 | 76.65381 | 2411 ft | 73 kts | 270° |
| 2026-05-07 06:25 | 12.23196 | 76.64856 | 2593 ft | 75 kts | 275° |
| 2026-05-07 06:25 | 12.23244 | 76.64316 | 2734 ft | 78 kts | 272° |
| 2026-05-07 06:25 | 12.23289 | 76.63766 | 2907 ft | 77 kts | 278° |
| 2026-05-07 06:25 | 12.23657 | 76.63412 | 3078 ft | 78 kts | 355° |
| 2026-05-07 06:26 | 12.24160 | 76.63661 | 3178 ft | 86 kts | 59° |
| 2026-05-07 06:26 | 12.24388 | 76.64207 | 3372 ft | 82 kts | 69° |
| 2026-05-07 06:26 | 12.24605 | 76.64732 | 3584 ft | 80 kts | 70° |
| 2026-05-07 06:26 | 12.24789 | 76.65273 | 3780 ft | 80 kts | 77° |
| 2026-05-07 06:27 | 12.24853 | 76.65834 | 3966 ft | 79 kts | 85° |
| 2026-05-07 06:27 | 12.24896 | 76.66400 | 4151 ft | 80 kts | 86° |
| 2026-05-07 06:27 | 12.24929 | 76.66955 | 4348 ft | 79 kts | 87° |
| 2026-05-07 06:27 | 12.24984 | 76.67512 | 4539 ft | 80 kts | 66° |
| 2026-05-07 06:28 | 12.25368 | 76.67904 | 4741 ft | 78 kts | 39° |
| 2026-05-07 06:28 | 12.25797 | 76.68243 | 4932 ft | 79 kts | 40° |
| 2026-05-07 06:28 | 12.26209 | 76.68623 | 5101 ft | 81 kts | 48° |
| 2026-05-07 06:28 | 12.26600 | 76.69016 | 5310 ft | 79 kts | 44° |
| 2026-05-07 06:29 | 12.26992 | 76.69405 | 5499 ft | 78 kts | 49° |
| 2026-05-07 06:29 | 12.27350 | 76.69827 | 5688 ft | 78 kts | 51° |
| 2026-05-07 06:29 | 12.27721 | 76.70236 | 5877 ft | 78 kts | 46° |
| 2026-05-07 06:29 | 12.28114 | 76.70623 | 6058 ft | 78 kts | 47° |
| 2026-05-07 06:30 | 12.28499 | 76.71010 | 6251 ft | 78 kts | 44° |
| 2026-05-07 06:30 | 12.28881 | 76.71407 | 6433 ft | 78 kts | 47° |
| 2026-05-07 06:30 | 12.29252 | 76.71794 | 6622 ft | 76 kts | 47° |
| 2026-05-07 06:30 | 12.29624 | 76.72198 | 6802 ft | 77 kts | 47° |
| 2026-05-07 06:31 | 12.29987 | 76.72588 | 6974 ft | 78 kts | 48° |
| 2026-05-07 06:31 | 12.30418 | 76.73064 | 6929 ft | 100 kts | 48° |
| 2026-05-07 06:31 | 12.30931 | 76.73614 | 6885 ft | 113 kts | 46° |
| 2026-05-07 06:31 | 12.31493 | 76.74205 | 6838 ft | 113 kts | 48° |
| 2026-05-07 06:32 | 12.32038 | 76.74801 | 6768 ft | 114 kts | 48° |
| 2026-05-07 06:32 | 12.32572 | 76.75384 | 6770 ft | 111 kts | 47° |
| 2026-05-07 06:32 | 12.33085 | 76.75938 | 6865 ft | 102 kts | 47° |
| 2026-05-07 06:32 | 12.33567 | 76.76441 | 6954 ft | 97 kts | 46° |
| 2026-05-07 06:33 | 12.34052 | 76.76932 | 6975 ft | 99 kts | 47° |
| 2026-05-07 06:33 | 12.34552 | 76.77448 | 6996 ft | 104 kts | 45° |
| 2026-05-07 06:33 | 12.35085 | 76.77978 | 7001 ft | 108 kts | 46° |
| 2026-05-07 06:33 | 12.35635 | 76.78516 | 7028 ft | 109 kts | 45° |
| 2026-05-07 06:34 | 12.36166 | 76.79047 | 7074 ft | 108 kts | 49° |
| 2026-05-07 06:34 | 12.36659 | 76.79655 | 7056 ft | 112 kts | 53° |
| 2026-05-07 06:34 | 12.37132 | 76.80306 | 7043 ft | 113 kts | 54° |
| 2026-05-07 06:34 | 12.37617 | 76.80943 | 7028 ft | 114 kts | 48° |
| 2026-05-07 06:35 | 12.38186 | 76.81503 | 7048 ft | 112 kts | 46° |
| 2026-05-07 06:35 | 12.38757 | 76.82063 | 7050 ft | 113 kts | 45° |
| 2026-05-07 06:35 | 12.39330 | 76.82613 | 7068 ft | 113 kts | 45° |
| 2026-05-07 06:35 | 12.39897 | 76.83177 | 7052 ft | 114 kts | 46° |
| 2026-05-07 06:36 | 12.40462 | 76.83755 | 7040 ft | 115 kts | 46° |
| 2026-05-07 06:36 | 12.41031 | 76.84339 | 7019 ft | 115 kts | 46° |
| 2026-05-07 06:36 | 12.41602 | 76.84928 | 6999 ft | 116 kts | 46° |
| 2026-05-07 06:36 | 12.42171 | 76.85517 | 6985 ft | 116 kts | 46° |
| 2026-05-07 06:37 | 12.42736 | 76.86101 | 6975 ft | 116 kts | 47° |
| 2026-05-07 06:37 | 12.43300 | 76.86688 | 6961 ft | 116 kts | 47° |
| 2026-05-07 06:37 | 12.43872 | 76.87287 | 6939 ft | 116 kts | 47° |
| 2026-05-07 06:37 | 12.44436 | 76.87875 | 6929 ft | 115 kts | 47° |
| 2026-05-07 06:38 | 12.44994 | 76.88458 | 6916 ft | 115 kts | 47° |
| 2026-05-07 06:38 | 12.45561 | 76.89053 | 6909 ft | 116 kts | 47° |
| 2026-05-07 06:38 | 12.46124 | 76.89645 | 6902 ft | 116 kts | 48° |
| 2026-05-07 06:38 | 12.46690 | 76.90240 | 6895 ft | 116 kts | 47° |
| 2026-05-07 06:39 | 12.47258 | 76.90836 | 6889 ft | 116 kts | 47° |
| 2026-05-07 06:39 | 12.47822 | 76.91431 | 6884 ft | 116 kts | 47° |
| 2026-05-07 06:39 | 12.48385 | 76.92024 | 6881 ft | 115 kts | 47° |
| 2026-05-07 06:39 | 12.48948 | 76.92615 | 6875 ft | 115 kts | 47° |
| 2026-05-07 06:40 | 12.49506 | 76.93202 | 6869 ft | 116 kts | 47° |
| 2026-05-07 06:40 | 12.50070 | 76.93797 | 6864 ft | 116 kts | 47° |
| 2026-05-07 06:40 | 12.50633 | 76.94393 | 6859 ft | 115 kts | 47° |
| 2026-05-07 06:40 | 12.51197 | 76.94989 | 6854 ft | 116 kts | 47° |
| 2026-05-07 06:41 | 12.51758 | 76.95581 | 6850 ft | 115 kts | 47° |
| 2026-05-07 06:41 | 12.52323 | 76.96176 | 6843 ft | 116 kts | 47° |
| 2026-05-07 06:41 | 12.52887 | 76.96771 | 6837 ft | 116 kts | 47° |
| 2026-05-07 06:41 | 12.53447 | 76.97362 | 6832 ft | 116 kts | 48° |
| 2026-05-07 06:42 | 12.54012 | 76.97958 | 6826 ft | 116 kts | 48° |
| 2026-05-07 06:42 | 12.54577 | 76.98555 | 6822 ft | 115 kts | 48° |
| 2026-05-07 06:42 | 12.55138 | 76.99147 | 6817 ft | 115 kts | 48° |
| 2026-05-07 06:42 | 12.55696 | 76.99738 | 6811 ft | 115 kts | 48° |
| 2026-05-07 06:43 | 12.56249 | 77.00321 | 6804 ft | 115 kts | 48° |
| 2026-05-07 06:43 | 12.56807 | 77.00911 | 6797 ft | 115 kts | 48° |
| 2026-05-07 06:43 | 12.57368 | 77.01504 | 6789 ft | 115 kts | 48° |
| 2026-05-07 06:43 | 12.57929 | 77.02097 | 6783 ft | 115 kts | 48° |
| 2026-05-07 06:44 | 12.58488 | 77.02688 | 6775 ft | 116 kts | 48° |
| 2026-05-07 06:44 | 12.59052 | 77.03284 | 6771 ft | 116 kts | 47° |
| 2026-05-07 06:44 | 12.59614 | 77.03878 | 6768 ft | 115 kts | 47° |
| 2026-05-07 06:44 | 12.60177 | 77.04474 | 6763 ft | 115 kts | 48° |
| 2026-05-07 06:45 | 12.60732 | 77.05060 | 6758 ft | 115 kts | 47° |
| 2026-05-07 06:45 | 12.61297 | 77.05657 | 6751 ft | 116 kts | 47° |
| 2026-05-07 06:45 | 12.61860 | 77.06252 | 6746 ft | 116 kts | 47° |
| 2026-05-07 06:45 | 12.62419 | 77.06842 | 6740 ft | 116 kts | 47° |
| 2026-05-07 06:46 | 12.62988 | 77.07444 | 6737 ft | 116 kts | 47° |
| 2026-05-07 06:46 | 12.63553 | 77.08041 | 6727 ft | 116 kts | 48° |
| 2026-05-07 06:46 | 12.64113 | 77.08634 | 6719 ft | 116 kts | 47° |
| 2026-05-07 06:46 | 12.64677 | 77.09231 | 6709 ft | 116 kts | 48° |
| 2026-05-07 06:47 | 12.65243 | 77.09829 | 6699 ft | 116 kts | 48° |
| 2026-05-07 06:47 | 12.65805 | 77.10425 | 6688 ft | 116 kts | 47° |
| 2026-05-07 06:47 | 12.66371 | 77.11023 | 6677 ft | 116 kts | 48° |
| 2026-05-07 06:47 | 12.66931 | 77.11614 | 6668 ft | 116 kts | 48° |
| 2026-05-07 06:48 | 12.67497 | 77.12213 | 6663 ft | 116 kts | 48° |
| 2026-05-07 06:48 | 12.68057 | 77.12805 | 6657 ft | 116 kts | 48° |
| 2026-05-07 06:48 | 12.68623 | 77.13403 | 6652 ft | 117 kts | 49° |
| 2026-05-07 06:48 | 12.69190 | 77.14004 | 6644 ft | 117 kts | 48° |
| 2026-05-07 06:49 | 12.69757 | 77.14604 | 6637 ft | 117 kts | 48° |
| 2026-05-07 06:49 | 12.70324 | 77.15205 | 6627 ft | 117 kts | 48° |
| 2026-05-07 06:49 | 12.70895 | 77.15810 | 6617 ft | 117 kts | 47° |
| 2026-05-07 06:49 | 12.71462 | 77.16410 | 6608 ft | 117 kts | 48° |
| 2026-05-07 06:50 | 12.72028 | 77.17009 | 6604 ft | 116 kts | 48° |
| 2026-05-07 06:50 | 12.72593 | 77.17607 | 6596 ft | 116 kts | 48° |
| 2026-05-07 06:50 | 12.73156 | 77.18203 | 6597 ft | 116 kts | 48° |
| 2026-05-07 06:50 | 12.73706 | 77.18785 | 6657 ft | 111 kts | 48° |
| 2026-05-07 06:51 | 12.74246 | 77.19353 | 6723 ft | 108 kts | 48° |
| 2026-05-07 06:51 | 12.74769 | 77.19906 | 6785 ft | 107 kts | 48° |
| 2026-05-07 06:51 | 12.75281 | 77.20446 | 6853 ft | 105 kts | 48° |
| 2026-05-07 06:51 | 12.75793 | 77.20988 | 6922 ft | 105 kts | 48° |
| 2026-05-07 06:52 | 12.76304 | 77.21527 | 6967 ft | 106 kts | 48° |
| 2026-05-07 06:52 | 12.76830 | 77.22086 | 6974 ft | 109 kts | 49° |
| 2026-05-07 06:52 | 12.77303 | 77.22690 | 6974 ft | 110 kts | 54° |
| 2026-05-07 06:52 | 12.77768 | 77.23305 | 6971 ft | 108 kts | 53° |
| 2026-05-07 06:53 | 12.78236 | 77.23904 | 6969 ft | 107 kts | 52° |
| 2026-05-07 06:53 | 12.78712 | 77.24494 | 6966 ft | 107 kts | 52° |
| 2026-05-07 06:53 | 12.79192 | 77.25075 | 6966 ft | 106 kts | 51° |
| 2026-05-07 06:53 | 12.79679 | 77.25651 | 6963 ft | 106 kts | 51° |
| 2026-05-07 06:54 | 12.80167 | 77.26218 | 6969 ft | 105 kts | 51° |
| 2026-05-07 06:54 | 12.80662 | 77.26784 | 6972 ft | 105 kts | 51° |
| 2026-05-07 06:54 | 12.81169 | 77.27330 | 6967 ft | 107 kts | 38° |
| 2026-05-07 06:54 | 12.81828 | 77.27707 | 6950 ft | 109 kts | 32° |
| 2026-05-07 06:55 | 12.82503 | 77.28080 | 6950 ft | 110 kts | 32° |
| 2026-05-07 06:55 | 12.83192 | 77.28454 | 6947 ft | 111 kts | 32° |
| 2026-05-07 06:55 | 12.83876 | 77.28827 | 6970 ft | 110 kts | 32° |
| 2026-05-07 06:55 | 12.84557 | 77.29192 | 6974 ft | 111 kts | 32° |
| 2026-05-07 06:56 | 12.85238 | 77.29568 | 6969 ft | 111 kts | 32° |
| 2026-05-07 06:56 | 12.85921 | 77.29947 | 6974 ft | 111 kts | 32° |
| 2026-05-07 06:56 | 12.86611 | 77.30321 | 6986 ft | 110 kts | 31° |
| 2026-05-07 06:56 | 12.87297 | 77.30696 | 6977 ft | 112 kts | 32° |
| 2026-05-07 06:57 | 12.87981 | 77.31081 | 6978 ft | 112 kts | 32° |
| 2026-05-07 06:57 | 12.88639 | 77.31488 | 6989 ft | 109 kts | 40° |
| 2026-05-07 06:57 | 12.89307 | 77.31871 | 6995 ft | 110 kts | 35° |
| 2026-05-07 06:57 | 12.89975 | 77.32269 | 6994 ft | 111 kts | 32° |
| 2026-05-07 06:58 | 12.90664 | 77.32645 | 6995 ft | 112 kts | 32° |
| 2026-05-07 06:58 | 12.91354 | 77.33015 | 6994 ft | 112 kts | 31° |
| 2026-05-07 06:58 | 12.92048 | 77.33383 | 6996 ft | 112 kts | 32° |
| 2026-05-07 06:58 | 12.92742 | 77.33746 | 6996 ft | 112 kts | 31° |
| 2026-05-07 06:59 | 12.93437 | 77.34109 | 6996 ft | 112 kts | 31° |
| 2026-05-07 06:59 | 12.94133 | 77.34474 | 6996 ft | 111 kts | 32° |
| 2026-05-07 06:59 | 12.94836 | 77.34843 | 6995 ft | 111 kts | 31° |
| 2026-05-07 06:59 | 12.95527 | 77.35208 | 6996 ft | 111 kts | 32° |
| 2026-05-07 07:00 | 12.96218 | 77.35576 | 6997 ft | 111 kts | 31° |
| 2026-05-07 07:00 | 12.96913 | 77.35946 | 6998 ft | 111 kts | 32° |
| 2026-05-07 07:00 | 12.97598 | 77.36312 | 6996 ft | 111 kts | 31° |
| 2026-05-07 07:00 | 12.98289 | 77.36684 | 6998 ft | 111 kts | 32° |
| 2026-05-07 07:01 | 12.99047 | 77.36899 | 7001 ft | 114 kts | 8° |
| 2026-05-07 07:01 | 12.99836 | 77.36935 | 7037 ft | 112 kts | 7° |
| 2026-05-07 07:01 | 13.00629 | 77.36961 | 7027 ft | 114 kts | 7° |
| 2026-05-07 07:01 | 13.01417 | 77.36989 | 7049 ft | 113 kts | 9° |
| 2026-05-07 07:02 | 13.02207 | 77.37037 | 7036 ft | 114 kts | 9° |
| 2026-05-07 07:02 | 13.03008 | 77.37085 | 7037 ft | 114 kts | 10° |
| 2026-05-07 07:02 | 13.03816 | 77.37131 | 7019 ft | 116 kts | 9° |
| 2026-05-07 07:02 | 13.04624 | 77.37192 | 7002 ft | 116 kts | 11° |
| 2026-05-07 07:03 | 13.05431 | 77.37272 | 6991 ft | 115 kts | 11° |
| 2026-05-07 07:03 | 13.06227 | 77.37340 | 6981 ft | 115 kts | 10° |
| 2026-05-07 07:03 | 13.07031 | 77.37412 | 6992 ft | 115 kts | 11° |
| 2026-05-07 07:03 | 13.07830 | 77.37472 | 7012 ft | 114 kts | 9° |
| 2026-05-07 07:04 | 13.08616 | 77.37528 | 7031 ft | 113 kts | 9° |
| 2026-05-07 07:04 | 13.09416 | 77.37576 | 7025 ft | 115 kts | 8° |
| 2026-05-07 07:04 | 13.10215 | 77.37662 | 6986 ft | 116 kts | 13° |
| 2026-05-07 07:04 | 13.11017 | 77.37746 | 6980 ft | 115 kts | 9° |
| 2026-05-07 07:05 | 13.11805 | 77.37810 | 6983 ft | 113 kts | 11° |
| 2026-05-07 07:05 | 13.12597 | 77.37879 | 6985 ft | 112 kts | 11° |
| 2026-05-07 07:05 | 13.13379 | 77.37948 | 6986 ft | 112 kts | 11° |
| 2026-05-07 07:05 | 13.14119 | 77.38142 | 6968 ft | 107 kts | 39° |
| 2026-05-07 07:06 | 13.14555 | 77.38741 | 6965 ft | 105 kts | 61° |
| 2026-05-07 07:06 | 13.14935 | 77.39384 | 6957 ft | 105 kts | 59° |
| 2026-05-07 07:06 | 13.15332 | 77.40036 | 6924 ft | 108 kts | 60° |
| 2026-05-07 07:06 | 13.15715 | 77.40688 | 6799 ft | 109 kts | 62° |
| 2026-05-07 07:07 | 13.16110 | 77.41372 | 6597 ft | 112 kts | 62° |
| 2026-05-07 07:07 | 13.16503 | 77.42065 | 6428 ft | 111 kts | 62° |
| 2026-05-07 07:07 | 13.16895 | 77.42748 | 6233 ft | 113 kts | 62° |
| 2026-05-07 07:07 | 13.17304 | 77.43433 | 6060 ft | 111 kts | 61° |
| 2026-05-07 07:08 | 13.17703 | 77.44129 | 5996 ft | 112 kts | 62° |
| 2026-05-07 07:08 | 13.18092 | 77.44830 | 5960 ft | 114 kts | 64° |
| 2026-05-07 07:08 | 13.18470 | 77.45535 | 5993 ft | 109 kts | 63° |
| 2026-05-07 07:08 | 13.18837 | 77.46212 | 5994 ft | 110 kts | 63° |
| 2026-05-07 07:09 | 13.19213 | 77.46897 | 6004 ft | 109 kts | 62° |
| 2026-05-07 07:09 | 13.19592 | 77.47580 | 5993 ft | 112 kts | 63° |
| 2026-05-07 07:09 | 13.19977 | 77.48280 | 5995 ft | 111 kts | 62° |
| 2026-05-07 07:09 | 13.20369 | 77.48974 | 5955 ft | 113 kts | 60° |
| 2026-05-07 07:10 | 13.20734 | 77.49691 | 5908 ft | 114 kts | 77° |
| 2026-05-07 07:10 | 13.20780 | 77.50506 | 5858 ft | 114 kts | 87° |
| 2026-05-07 07:10 | 13.20771 | 77.51317 | 5824 ft | 114 kts | 90° |
| 2026-05-07 07:10 | 13.20765 | 77.52119 | 5865 ft | 110 kts | 89° |
| 2026-05-07 07:11 | 13.20771 | 77.52911 | 5836 ft | 112 kts | 89° |
| 2026-05-07 07:11 | 13.20782 | 77.53720 | 5803 ft | 114 kts | 89° |
| 2026-05-07 07:11 | 13.20777 | 77.54507 | 5691 ft | 103 kts | 92° |
| 2026-05-07 07:11 | 13.20739 | 77.55202 | 5503 ft | 94 kts | 95° |
| 2026-05-07 07:12 | 13.20703 | 77.55859 | 5393 ft | 91 kts | 86° |
| 2026-05-07 07:12 | 13.20742 | 77.56507 | 5239 ft | 93 kts | 87° |
| 2026-05-07 07:12 | 13.20762 | 77.57161 | 5146 ft | 93 kts | 89° |
| 2026-05-07 07:12 | 13.20767 | 77.57829 | 5050 ft | 92 kts | 88° |
| 2026-05-07 07:13 | 13.20799 | 77.58488 | 4944 ft | 92 kts | 89° |
| 2026-05-07 07:13 | 13.20809 | 77.59152 | 4754 ft | 95 kts | 92° |
| 2026-05-07 07:13 | 13.20782 | 77.59834 | 4628 ft | 94 kts | 90° |
| 2026-05-07 07:13 | 13.20776 | 77.60503 | 4502 ft | 93 kts | 91° |
| 2026-05-07 07:14 | 13.20747 | 77.61169 | 4366 ft | 93 kts | 94° |
| 2026-05-07 07:14 | 13.20727 | 77.61831 | 4240 ft | 92 kts | 89° |
| 2026-05-07 07:14 | 13.20769 | 77.62485 | 4107 ft | 93 kts | 87° |
| 2026-05-07 07:14 | 13.20778 | 77.63152 | 3976 ft | 92 kts | 94° |
| 2026-05-07 07:15 | 13.20748 | 77.63808 | 3882 ft | 91 kts | 94° |
| 2026-05-07 07:15 | 13.20753 | 77.64458 | 3797 ft | 91 kts | 90° |
| 2026-05-07 07:15 | 13.20754 | 77.65120 | 3666 ft | 93 kts | 93° |
| 2026-05-07 07:15 | 13.20739 | 77.65783 | 3531 ft | 95 kts | 93° |
| 2026-05-07 07:16 | 13.20740 | 77.66462 | 3448 ft | 94 kts | 92° |
| 2026-05-07 07:16 | 13.20731 | 77.67137 | 3338 ft | 94 kts | 92° |
| 2026-05-07 07:16 | 13.20725 | 77.67799 | 3227 ft | 94 kts | 94° |
| 2026-05-07 07:16 | 13.20718 | 77.68385 | 3107 ft | 75 kts | 95° |
| 2026-05-07 07:17 | 13.20712 | 77.68913 | 3009 ft | 68 kts | 94° |
| 2026-05-07 07:17 | 13.20710 | 77.69305 | 2994 ft | 43 kts | 91° |
| 2026-05-07 07:17 | 13.20708 | 77.69551 | 2991 ft | 28 kts | 92° |
| 2026-05-07 07:17 | 13.20705 | 77.69797 | 2988 ft | 40 kts | 88° |
| 2026-05-07 07:18 | 13.20695 | 77.70078 | 2985 ft | 34 kts | 117° |
| 2026-05-07 07:18 | 13.20692 | 77.70287 | 2980 ft | 34 kts | 97° |
| 2026-05-07 07:18 | 13.20557 | 77.70396 | 2977 ft | 17 kts | 172° |